createdAt,value
2019-03-28T00:02:24.535Z,101718.01
2019-03-28T00:04:55.635Z,101723.45
2019-03-28T00:07:26.450Z,101719.17
2019-03-28T00:09:57.354Z,101729.60
2019-03-28T00:12:28.334Z,101727.05
2019-03-28T00:14:59.038Z,101724.20
2019-03-28T00:17:30.003Z,101724.78
2019-03-28T00:20:00.861Z,101720.97
2019-03-28T00:23:00.069Z,101724.82
2019-03-28T00:25:31.933Z,101728.30
2019-03-28T00:28:02.697Z,101731.72
2019-03-28T00:30:33.691Z,101729.09
2019-03-28T00:33:04.738Z,101725.78
2019-03-28T00:35:35.528Z,101741.27
2019-03-28T00:38:06.412Z,101736.45
2019-03-28T00:40:37.122Z,101736.86
2019-03-28T00:43:08.230Z,101635.98
2019-03-28T00:45:39.028Z,101750.08
2019-03-28T00:48:09.785Z,101728.87
2019-03-28T00:50:40.874Z,101735.34
2019-03-28T00:53:11.809Z,101733.27
2019-03-28T00:55:42.788Z,101734.95
2019-03-28T00:58:13.893Z,101737.08
2019-03-28T01:00:45.088Z,101740.06
2019-03-28T01:03:16.176Z,101732.22
2019-03-28T01:05:47.179Z,101735.42
2019-03-28T01:08:18.225Z,101736.72
2019-03-28T01:10:49.238Z,101729.78
2019-03-28T01:13:20.278Z,101728.63
2019-03-28T01:15:51.684Z,101728.23
2019-03-28T01:18:22.759Z,101730.09
2019-03-28T01:20:53.780Z,101731.92
2019-03-28T01:23:24.991Z,101730.45
2019-03-28T01:25:56.014Z,101733.58
2019-03-28T01:28:26.962Z,101740.91
2019-03-28T01:30:58.101Z,101731.89
2019-03-28T01:33:29.117Z,101730.70
2019-03-28T01:36:00.866Z,101736.34
2019-03-28T01:38:31.861Z,101726.52
2019-03-28T01:41:02.959Z,101729.58
2019-03-28T01:43:33.971Z,101727.95
2019-03-28T01:46:05.388Z,101733.22
2019-03-28T01:48:36.504Z,101729.14
2019-03-28T01:51:07.672Z,101729.55
2019-03-28T01:53:38.658Z,101725.86
2019-03-28T01:56:09.921Z,101728.08
2019-03-28T01:59:01.342Z,101728.27
2019-03-28T02:01:32.509Z,101738.30
2019-03-28T02:04:03.926Z,101731.27
2019-03-28T02:06:35.152Z,101731.23
2019-03-28T02:09:07.766Z,101729.69
2019-03-28T02:11:38.810Z,101728.95
2019-03-28T02:14:10.134Z,101737.61
2019-03-28T02:16:41.212Z,101734.66
2019-03-28T02:19:12.265Z,101736.31
2019-03-28T02:21:43.450Z,101739.73
2019-03-28T02:24:14.398Z,101743.90
2019-03-28T02:26:45.512Z,101749.09
2019-03-28T02:29:16.634Z,101752.94
2019-03-28T02:31:47.558Z,101755.52
2019-03-28T02:34:18.709Z,101752.51
2019-03-28T02:36:49.827Z,101753.83
2019-03-28T02:39:20.797Z,101760.71
2019-03-28T02:41:51.800Z,101760.69
2019-03-28T02:44:22.876Z,101761.89
2019-03-28T02:46:53.882Z,101770.02
2019-03-28T02:50:17.466Z,101770.88
2019-03-28T02:52:48.776Z,101778.14
2019-03-28T02:55:20.221Z,101768.70
2019-03-28T02:57:51.460Z,101772.63
2019-03-28T03:00:23.229Z,101769.35
2019-03-28T03:02:54.428Z,101777.72
2019-03-28T03:05:25.670Z,101776.48
2019-03-28T03:07:56.834Z,101765.96
2019-03-28T03:10:28.301Z,101779.36
2019-03-28T03:12:59.462Z,101772.95
2019-03-28T03:15:30.595Z,101775.97
2019-03-28T03:18:01.686Z,101777.77
2019-03-28T03:20:32.951Z,101774.73
2019-03-28T03:23:04.178Z,101776.00
2019-03-28T03:25:35.089Z,101777.27
2019-03-28T03:28:06.365Z,101776.43
2019-03-28T03:30:37.402Z,101777.30
2019-03-28T03:33:09.215Z,101772.91
2019-03-28T03:35:40.684Z,101770.70
2019-03-28T03:38:11.770Z,101774.12
2019-03-28T03:40:42.784Z,101779.57
2019-03-28T03:43:14.044Z,101778.28
2019-03-28T03:45:45.345Z,101786.47
2019-03-28T03:48:16.443Z,101788.62
2019-03-28T03:50:48.695Z,101788.53
2019-03-28T03:53:20.070Z,101787.59
2019-03-28T03:55:51.067Z,101787.19
2019-03-28T03:58:22.174Z,101791.95
2019-03-28T04:00:53.266Z,101794.10
2019-03-28T04:03:24.538Z,101797.49
2019-03-28T04:05:55.666Z,101797.52
2019-03-28T04:08:27.133Z,101797.13
2019-03-28T04:10:59.525Z,101801.31
2019-03-28T04:13:30.638Z,101800.42
2019-03-28T04:16:01.870Z,101797.86
2019-03-28T04:18:33.273Z,101795.06
2019-03-28T04:21:04.318Z,101795.13
2019-03-28T04:23:35.512Z,101804.01
2019-03-28T04:26:06.830Z,101795.55
2019-03-28T04:28:39.768Z,101791.51
2019-03-28T04:31:10.825Z,101794.92
2019-03-28T04:33:41.859Z,101789.11
2019-03-28T04:36:12.907Z,101784.08
2019-03-28T04:38:43.914Z,101791.81
2019-03-28T04:41:15.056Z,101796.78
2019-03-28T04:43:46.266Z,101791.53
2019-03-28T04:46:17.557Z,101792.75
2019-03-28T04:48:50.784Z,101793.15
2019-03-28T04:51:22.579Z,101791.81
2019-03-28T04:53:56.203Z,101793.77
2019-03-28T04:56:26.352Z,101796.39
2019-03-28T04:58:57.729Z,101802.35
2019-03-28T05:01:28.933Z,101803.72
2019-03-28T05:04:00.197Z,101807.46
2019-03-28T05:06:31.550Z,101803.10
2019-03-28T05:09:02.885Z,101805.44
2019-03-28T05:11:34.084Z,101810.50
2019-03-28T05:14:05.170Z,101811.17
2019-03-28T05:16:36.215Z,101812.28
2019-03-28T05:19:07.377Z,101810.63
2019-03-28T05:21:38.400Z,101810.59
2019-03-28T05:24:09.630Z,101805.63
2019-03-28T05:26:41.345Z,101804.13
2019-03-28T05:29:12.538Z,101804.13
2019-03-28T05:31:43.802Z,101802.45
2019-03-28T05:34:14.969Z,101800.07
2019-03-28T05:36:46.335Z,101817.53
2019-03-28T05:39:17.421Z,101809.50
2019-03-28T05:41:48.895Z,101807.13
2019-03-28T05:44:20.058Z,101806.52
2019-03-28T05:46:51.537Z,101813.73
2019-03-28T05:49:22.754Z,101809.81
2019-03-28T05:51:53.965Z,101811.33
2019-03-28T05:54:25.158Z,101806.98
2019-03-28T05:56:56.327Z,101813.14
2019-03-28T05:59:27.322Z,101821.06
2019-03-28T06:01:58.391Z,101818.47
2019-03-28T06:04:29.560Z,101819.23
2019-03-28T06:07:00.705Z,101813.50
2019-03-28T06:09:32.095Z,101802.58
2019-03-28T06:12:03.216Z,101805.05
2019-03-28T06:14:34.561Z,101809.47
2019-03-28T06:17:05.638Z,101808.88
2019-03-28T06:19:36.807Z,101812.99
2019-03-28T06:22:07.952Z,101816.52
2019-03-28T06:24:39.505Z,101814.14
2019-03-28T06:27:12.061Z,101822.67
2019-03-28T06:29:43.146Z,101817.05
2019-03-28T06:32:14.730Z,101822.28
2019-03-28T06:34:45.832Z,101822.39
2019-03-28T06:37:17.000Z,101829.27
2019-03-28T06:39:48.116Z,101830.94
2019-03-28T06:42:19.459Z,101832.38
2019-03-28T06:44:50.659Z,101830.55
2019-03-28T06:47:22.616Z,101824.80
2019-03-28T06:49:55.284Z,101833.45
2019-03-28T06:52:28.000Z,101835.19
2019-03-28T06:54:59.627Z,101849.44
2019-03-28T06:57:30.684Z,101846.55
2019-03-28T07:00:04.861Z,101841.59
2019-03-28T07:02:36.276Z,101841.34
2019-03-28T07:05:07.594Z,101848.08
2019-03-28T07:07:38.882Z,101845.45
2019-03-28T07:10:11.017Z,101859.70
2019-03-28T07:12:42.508Z,101860.58
2019-03-28T07:15:14.184Z,101861.13
2019-03-28T07:17:45.520Z,101854.64
2019-03-28T07:20:16.780Z,101855.27
2019-03-28T07:22:48.045Z,101869.77
2019-03-28T07:25:19.239Z,101857.05
2019-03-28T07:27:50.316Z,101863.25
2019-03-28T07:30:22.166Z,101864.03
2019-03-28T07:32:53.776Z,101867.23
2019-03-28T07:35:25.109Z,101867.23
2019-03-28T07:37:56.233Z,101868.58
2019-03-28T07:40:27.466Z,101868.58
2019-03-28T07:42:58.380Z,101851.92
2019-03-28T07:45:34.443Z,101856.66
2019-03-28T07:48:05.248Z,101865.58
2019-03-28T07:50:36.132Z,101865.58
2019-03-28T07:53:07.252Z,101866.63
2019-03-28T07:55:37.957Z,101866.52
2019-03-28T07:58:09.573Z,101861.59
2019-03-28T08:00:40.445Z,101859.00
2019-03-28T08:03:11.393Z,101849.89
2019-03-28T08:05:42.446Z,101853.28
2019-03-28T08:08:14.551Z,101853.28
2019-03-28T08:10:46.054Z,101853.59
2019-03-28T08:13:16.886Z,101842.95
2019-03-28T08:15:48.536Z,101837.18
2019-03-28T08:18:19.754Z,101842.66
2019-03-28T08:20:50.981Z,101837.11
2019-03-28T08:23:21.952Z,101831.91
2019-03-28T08:25:52.898Z,101832.30
2019-03-28T08:28:24.035Z,101832.30
2019-03-28T08:30:55.008Z,101824.66
2019-03-28T08:33:26.549Z,101832.79
2019-03-28T08:35:59.206Z,101828.10
2019-03-28T08:38:31.171Z,101828.14
2019-03-28T08:41:06.778Z,101829.77
2019-03-28T08:43:36.207Z,101840.63
2019-03-28T08:46:08.985Z,101832.89
2019-03-28T08:48:40.079Z,101826.56
2019-03-28T08:51:11.731Z,101824.97
2019-03-28T08:53:42.782Z,101827.58
2019-03-28T08:56:13.517Z,101817.69
2019-03-28T08:58:48.260Z,101815.08
2019-03-28T09:01:19.847Z,101822.42
2019-03-28T09:03:51.677Z,101803.05
2019-03-28T09:06:22.858Z,101825.41
2019-03-28T09:08:53.979Z,101824.30
2019-03-28T09:11:25.023Z,101830.22
2019-03-28T09:13:55.989Z,101822.27
2019-03-28T09:16:26.864Z,101819.03
2019-03-28T09:18:57.911Z,101819.61
2019-03-28T09:21:32.935Z,101814.73
2019-03-28T09:24:04.133Z,101815.83
2019-03-28T09:26:35.501Z,101810.88
2019-03-28T09:29:06.986Z,101809.63
2019-03-28T09:31:38.403Z,101817.53
2019-03-28T09:34:09.714Z,101815.56
2019-03-28T09:36:41.762Z,101815.63
2019-03-28T09:39:12.850Z,101803.50
2019-03-28T09:41:43.808Z,101802.20
2019-03-28T09:44:14.841Z,101804.23
2019-03-28T09:46:46.009Z,101805.80
2019-03-28T09:49:17.183Z,101794.47
2019-03-28T09:51:48.556Z,101799.87
2019-03-28T09:54:19.600Z,101801.44
2019-03-28T09:56:50.693Z,101796.94
2019-03-28T09:59:21.831Z,101794.50
2019-03-28T10:01:53.289Z,101793.87
2019-03-28T10:04:24.440Z,101798.19
2019-03-28T10:06:55.370Z,101789.86
2019-03-28T10:09:27.267Z,101789.63
2019-03-28T10:11:58.828Z,101786.06
2019-03-28T10:14:29.738Z,101781.16
2019-03-28T10:17:01.436Z,101783.66
2019-03-28T10:19:32.605Z,101780.91
2019-03-28T10:22:03.379Z,101782.81
2019-03-28T10:24:34.339Z,101788.20
2019-03-28T10:27:05.242Z,101782.90
2019-03-28T10:29:36.537Z,101779.63
2019-03-28T10:32:07.375Z,101781.02
2019-03-28T10:34:39.035Z,101779.61
2019-03-28T10:37:10.180Z,101789.80
2019-03-28T10:39:42.903Z,101779.20
2019-03-28T10:42:13.807Z,101779.20
2019-03-28T10:44:45.581Z,101777.78
2019-03-28T10:47:16.907Z,101776.28
2019-03-28T10:49:47.726Z,101769.73
2019-03-28T10:52:18.733Z,101759.11
2019-03-28T10:54:50.605Z,101762.16
2019-03-28T10:57:29.764Z,101756.88
2019-03-28T10:59:54.586Z,101764.34
2019-03-28T11:02:28.778Z,101764.34
2019-03-28T11:04:59.356Z,101761.63
2019-03-28T11:07:30.415Z,101754.40
2019-03-28T11:10:01.400Z,101754.40
2019-03-28T11:12:32.985Z,101760.45
2019-03-28T11:15:04.369Z,101760.95
2019-03-28T11:17:35.669Z,101755.45
2019-03-28T11:20:06.764Z,101766.14
2019-03-28T11:22:37.663Z,101758.09
2019-03-28T11:25:08.781Z,101749.50
2019-03-28T11:27:39.853Z,101745.08
2019-03-28T11:30:12.952Z,101746.85
2019-03-28T11:32:44.948Z,101748.20
2019-03-28T11:35:15.873Z,101750.03
2019-03-28T11:37:46.894Z,101740.92
2019-03-28T11:40:19.187Z,101742.44
2019-03-28T11:42:52.047Z,101739.60
2019-03-28T11:45:26.781Z,101736.55
2019-03-28T11:47:56.383Z,101741.19
2019-03-28T11:50:27.678Z,101745.28
2019-03-28T11:52:58.634Z,101738.91
2019-03-28T11:55:29.426Z,101736.73
2019-03-28T11:58:00.477Z,101734.71
2019-03-28T12:00:32.199Z,101727.60
2019-03-28T12:03:03.497Z,101719.24
2019-03-28T12:05:34.953Z,101726.55
2019-03-28T12:08:05.951Z,101726.55
2019-03-28T12:10:36.899Z,101731.95
2019-03-28T12:13:09.006Z,101731.22
2019-03-28T12:15:42.732Z,101726.20
2019-03-28T12:18:13.908Z,101720.64
2019-03-28T12:20:45.711Z,101716.03
2019-03-28T12:23:16.714Z,101705.28
2019-03-28T12:25:47.749Z,101705.28
2019-03-28T12:28:18.669Z,101707.19
2019-03-28T12:30:49.636Z,101704.30
2019-03-28T12:33:20.613Z,101694.95
2019-03-28T12:35:52.407Z,101698.25
2019-03-28T12:38:24.883Z,101697.27
2019-03-28T12:40:56.494Z,101700.42
2019-03-28T12:43:27.801Z,101693.05
2019-03-28T12:45:58.726Z,101693.05
2019-03-28T12:48:29.569Z,101689.66
2019-03-28T12:51:01.049Z,101686.61
2019-03-28T12:53:32.362Z,101681.39
2019-03-28T12:56:03.391Z,101670.23
2019-03-28T12:58:34.427Z,101680.31
2019-03-28T13:01:05.527Z,101679.83
2019-03-28T13:03:45.460Z,101679.83
2019-03-28T13:06:09.410Z,101681.27
2019-03-28T13:08:40.402Z,101681.27
2019-03-28T13:11:12.040Z,101681.67
2019-03-28T13:13:43.018Z,101678.20
2019-03-28T13:16:13.929Z,101678.63
2019-03-28T13:18:44.959Z,101678.52
2019-03-28T13:21:15.905Z,101673.47
2019-03-28T13:23:46.929Z,101670.45
2019-03-28T13:26:18.041Z,101667.06
2019-03-28T13:28:49.187Z,101667.06
2019-03-28T13:31:20.224Z,101666.91
2019-03-28T13:33:51.226Z,101665.03
2019-03-28T13:36:22.785Z,101660.63
2019-03-28T13:38:53.785Z,101660.63
2019-03-28T13:41:24.771Z,101664.16
2019-03-28T13:43:56.743Z,101659.53
2019-03-28T13:46:30.397Z,101653.22
2019-03-28T13:49:01.578Z,101648.56
2019-03-28T13:51:32.485Z,101648.56
2019-03-28T13:54:03.364Z,101659.80
2019-03-28T13:56:34.232Z,101661.05
2019-03-28T13:59:05.848Z,101644.42
2019-03-28T14:01:38.214Z,101644.42
2019-03-28T14:04:09.222Z,101656.73
2019-03-28T14:06:40.447Z,101651.73
2019-03-28T14:09:11.353Z,101649.39
2019-03-28T14:11:42.643Z,101649.39
2019-03-28T14:14:14.886Z,101651.81
2019-03-28T14:16:46.112Z,101641.83
2019-03-28T14:19:17.299Z,101641.83
2019-03-28T14:21:48.341Z,101647.90
2019-03-28T14:24:19.616Z,101647.89
2019-03-28T14:26:50.597Z,101648.23
2019-03-28T14:29:21.580Z,101648.23
2019-03-28T14:31:53.300Z,101646.91
2019-03-28T14:34:24.739Z,101648.38
2019-03-28T14:36:55.685Z,101644.58
2019-03-28T14:39:26.858Z,101644.58
2019-03-28T14:41:58.103Z,101634.76
2019-03-28T14:44:29.417Z,101634.76
2019-03-28T14:47:00.573Z,101625.77
2019-03-28T14:49:31.725Z,101630.50
2019-03-28T14:52:04.053Z,101618.64
2019-03-28T14:54:35.218Z,101625.64
2019-03-28T14:57:06.356Z,101618.91
2019-03-28T14:59:38.156Z,101619.59
2019-03-28T15:02:09.980Z,101625.41
2019-03-28T15:04:40.952Z,101627.25
2019-03-28T15:07:12.059Z,101624.27
2019-03-28T15:09:43.094Z,101628.47
2019-03-28T15:12:14.178Z,101634.78
2019-03-28T15:14:45.860Z,101630.57
2019-03-28T15:17:16.940Z,101634.89
2019-03-28T15:19:47.908Z,101632.17
2019-03-28T15:22:19.271Z,101633.09
2019-03-28T15:24:50.417Z,101630.69
2019-03-28T15:27:21.389Z,101635.30
2019-03-28T15:29:52.143Z,101627.17
2019-03-28T15:32:22.930Z,101630.43
2019-03-28T15:34:53.974Z,101635.36
2019-03-28T15:37:24.924Z,101635.90
2019-03-28T15:39:57.754Z,101628.27
2019-03-28T15:42:28.760Z,101629.20
2019-03-28T15:44:59.881Z,101632.33
2019-03-28T15:47:30.840Z,101634.52
2019-03-28T15:50:01.779Z,101630.94
2019-03-28T15:52:32.768Z,101641.33
2019-03-28T15:55:03.977Z,101639.81
2019-03-28T15:57:34.743Z,101630.34
2019-03-28T16:00:06.713Z,101624.23
2019-03-28T16:02:37.599Z,101632.73
2019-03-28T16:05:08.680Z,101630.73
2019-03-28T16:07:39.937Z,101629.32
2019-03-28T16:10:14.495Z,101636.67
2019-03-28T16:12:44.642Z,101637.00
2019-03-28T16:15:17.465Z,101633.80
2019-03-28T16:17:48.562Z,101637.56
2019-03-28T16:20:19.623Z,101638.96
2019-03-28T16:22:50.610Z,101632.96
2019-03-28T16:25:23.345Z,101629.66
2019-03-28T16:27:54.262Z,101634.65
2019-03-28T16:30:36.357Z,101636.53
2019-03-28T16:33:07.686Z,101639.19
2019-03-28T16:35:38.478Z,101638.22
2019-03-28T16:38:09.373Z,101634.91
2019-03-28T16:40:40.447Z,101631.97
2019-03-28T16:43:11.335Z,101633.28
2019-03-28T16:45:43.943Z,101645.01
2019-03-28T16:48:15.198Z,101639.96
2019-03-28T16:50:46.300Z,101641.02
2019-03-28T16:53:16.913Z,101644.71
2019-03-28T16:55:48.176Z,101649.95
2019-03-28T16:58:19.929Z,101649.13
2019-03-28T17:00:50.979Z,101648.37
2019-03-28T17:03:21.805Z,101645.43
2019-03-28T17:05:52.754Z,101650.67
2019-03-28T17:08:23.815Z,101648.55
2019-03-28T17:10:55.359Z,101653.45
2019-03-28T17:13:26.451Z,101664.53
2019-03-28T17:15:58.342Z,101666.27
2019-03-28T17:18:29.415Z,101663.81
2019-03-28T17:21:00.135Z,101670.86
2019-03-28T17:23:31.921Z,101665.28
2019-03-28T17:26:02.860Z,101674.80
2019-03-28T17:28:33.655Z,101684.43
2019-03-28T17:31:04.734Z,101686.98
2019-03-28T17:33:35.552Z,101685.73
2019-03-28T17:36:07.133Z,101682.23
2019-03-28T17:38:38.217Z,101680.94
2019-03-28T17:41:09.290Z,101684.77
2019-03-28T17:43:41.217Z,101685.16
2019-03-28T17:46:15.330Z,101682.96
2019-03-28T17:48:46.385Z,101681.02
2019-03-28T17:51:17.279Z,101680.72
2019-03-28T17:53:48.244Z,101676.05
2019-03-28T17:56:21.154Z,101668.67
2019-03-28T17:58:53.607Z,101667.11
2019-03-28T18:01:24.691Z,101679.73
2019-03-28T18:03:55.681Z,101687.20
2019-03-28T18:06:27.475Z,101688.27
2019-03-28T18:08:58.229Z,101683.88
2019-03-28T18:11:29.464Z,101686.52
2019-03-28T18:14:00.498Z,101686.94
2019-03-28T18:16:31.556Z,101689.61
2019-03-28T18:19:02.733Z,101690.20
2019-03-28T18:21:34.054Z,101685.55
2019-03-28T18:24:05.612Z,101690.64
2019-03-28T18:26:36.864Z,101692.33
2019-03-28T18:29:08.129Z,101688.82
2019-03-28T18:31:49.658Z,101694.47
2019-03-28T18:34:12.466Z,101686.70
2019-03-28T18:36:43.463Z,101685.02
2019-03-28T18:39:14.638Z,101689.41
2019-03-28T18:41:45.901Z,101692.43
2019-03-28T18:44:16.808Z,101696.20
2019-03-28T18:46:48.205Z,101684.70
2019-03-28T18:49:19.554Z,101692.05
2019-03-28T18:51:50.449Z,101694.31
2019-03-28T18:54:21.315Z,101702.91
2019-03-28T18:56:52.247Z,101699.49
2019-03-28T18:59:23.813Z,101705.66
2019-03-28T19:01:57.219Z,101698.56
2019-03-28T19:04:29.796Z,101700.52
2019-03-28T19:07:05.356Z,101703.57
2019-03-28T19:09:36.569Z,101704.90
2019-03-28T19:12:16.257Z,101709.47
2019-03-28T19:14:47.315Z,101706.31
2019-03-28T19:17:20.016Z,101705.63
2019-03-28T19:19:51.402Z,101707.03
2019-03-28T19:22:23.901Z,101705.81
2019-03-28T19:24:54.799Z,101700.78
2019-03-28T19:27:25.850Z,101690.90
2019-03-28T19:29:56.770Z,101694.84
2019-03-28T19:32:29.812Z,101701.64
2019-03-28T19:35:03.009Z,101700.28
2019-03-28T19:37:33.521Z,101702.86
2019-03-28T19:40:06.919Z,101702.61
2019-03-28T19:42:38.223Z,101702.18
2019-03-28T19:45:09.781Z,101704.47
2019-03-28T19:47:40.728Z,101695.85
2019-03-28T19:50:15.639Z,101700.63
2019-03-28T19:52:46.761Z,101698.11
2019-03-28T19:55:21.884Z,101699.88
2019-03-28T19:57:52.907Z,101696.39
2019-03-28T20:00:24.572Z,101705.44
2019-03-28T20:02:55.917Z,101698.61
2019-03-28T20:05:27.004Z,101705.14
2019-03-28T20:07:58.203Z,101708.13
2019-03-28T20:10:29.785Z,101699.51
2019-03-28T20:13:00.517Z,101703.75
2019-03-28T20:15:31.447Z,101703.22
2019-03-28T20:18:03.151Z,101709.14
2019-03-28T20:20:34.087Z,101709.80
2019-03-28T20:23:06.074Z,101703.51
2019-03-28T20:25:37.168Z,101707.31
2019-03-28T20:28:09.421Z,101708.17
2019-03-28T20:30:40.364Z,101709.69
2019-03-28T20:33:11.838Z,101712.98
2019-03-28T20:35:43.943Z,101706.76
2019-03-28T20:38:15.075Z,101706.21
2019-03-28T20:40:46.068Z,101701.97
2019-03-28T20:43:16.998Z,101699.89
2019-03-28T20:45:48.787Z,101700.08
2019-03-28T20:48:20.179Z,101698.39
2019-03-28T20:50:51.136Z,101690.67
2019-03-28T20:53:22.367Z,101687.33
2019-03-28T20:55:53.659Z,101684.31
2019-03-28T20:58:24.398Z,101683.41
2019-03-28T21:00:55.525Z,101682.94
2019-03-28T21:03:27.021Z,101687.77
2019-03-28T21:05:58.281Z,101688.98
2019-03-28T21:08:29.349Z,101689.27
2019-03-28T21:11:00.320Z,101695.34
2019-03-28T21:13:31.462Z,101699.22
2019-03-28T21:16:02.365Z,101701.34
2019-03-28T21:18:33.280Z,101705.26
2019-03-28T21:21:04.544Z,101706.98
2019-03-28T21:23:36.009Z,101703.89
2019-03-28T21:26:07.099Z,101707.38
2019-03-28T21:28:47.192Z,101705.73
2019-03-28T21:31:11.067Z,101702.82
2019-03-28T21:33:42.404Z,101702.93
2019-03-28T21:36:13.612Z,101698.80
2019-03-28T21:38:44.547Z,101700.63
2019-03-28T21:41:15.697Z,101696.40
2019-03-28T21:43:46.646Z,101693.52
2019-03-28T21:46:17.632Z,101688.09
2019-03-28T21:48:48.623Z,101686.52
2019-03-28T21:51:19.479Z,101691.35
2019-03-28T21:53:51.530Z,101690.59
2019-03-28T21:56:22.341Z,101689.23
2019-03-28T21:58:53.068Z,101693.58
2019-03-28T22:01:23.976Z,101700.87
2019-03-28T22:03:55.209Z,101691.82
2019-03-28T22:06:42.090Z,101695.83
2019-03-28T22:09:01.339Z,101695.83
2019-03-28T22:11:32.262Z,101699.84
2019-03-28T22:14:03.424Z,101702.43
2019-03-28T22:16:34.056Z,101706.77
2019-03-28T22:19:05.479Z,101710.68
2019-03-28T22:21:36.388Z,101703.06
2019-03-28T22:24:07.480Z,101696.59
2019-03-28T22:26:38.797Z,101682.67
2019-03-28T22:29:10.362Z,101698.38
2019-03-28T22:31:41.353Z,101699.24
2019-03-28T22:34:12.572Z,101695.83
2019-03-28T22:36:56.597Z,101691.13
2019-03-28T22:39:16.868Z,101682.58
2019-03-28T22:41:48.267Z,101683.87
2019-03-28T22:44:19.876Z,101688.67
2019-03-28T22:46:51.321Z,101686.55
2019-03-28T22:49:22.368Z,101679.75
2019-03-28T22:51:53.805Z,101680.25
2019-03-28T22:54:24.864Z,101681.91
2019-03-28T22:56:56.166Z,101680.19
2019-03-28T22:59:27.642Z,101678.59
2019-03-28T23:01:59.373Z,101677.70
2019-03-28T23:04:30.728Z,101678.16
2019-03-28T23:07:10.739Z,101676.49
2019-03-28T23:09:35.094Z,101682.62
2019-03-28T23:12:06.511Z,101692.48
2019-03-28T23:14:37.986Z,101694.58
2019-03-28T23:17:09.426Z,101695.47
2019-03-28T23:19:40.985Z,101694.58
2019-03-28T23:22:12.400Z,101687.72
2019-03-28T23:24:44.384Z,101690.24
2019-03-28T23:27:15.938Z,101690.18
2019-03-28T23:29:50.164Z,101688.39
2019-03-28T23:32:21.980Z,101686.30
2019-03-28T23:34:53.479Z,101686.70
2019-03-28T23:37:26.130Z,101691.50
2019-03-28T23:39:58.043Z,101690.15
2019-03-28T23:42:31.563Z,101690.95
2019-03-28T23:45:02.625Z,101696.58
2019-03-28T23:47:34.146Z,101695.19
2019-03-28T23:50:06.970Z,101693.01
2019-03-28T23:52:38.558Z,101698.17
2019-03-28T23:55:09.893Z,101701.69
2019-03-28T23:57:41.124Z,101697.34
